»·PEaware :: N48340 KHHR-KFUL

N48340 :: KHHR-KFUL

FLIGHT INFORMATION

Flight Status: Arrived
Operator: Privately registered:
United States
More flights under this callsign
Pilot: Hector T. (16443)
Aircraft: CESSNA 172 SKYHAWK
(C172)
More flights by this aircraft type
Origin: KHHR Northrop/Hawthorne Mun
United States
Destination: KFUL Fullerton Mun
United States
More flights between these airports :: More routes between these airports
Route: LIMBO V64 SLI
File this flight plan on PilotEdge
Remarks:
Altitude:
(Current/Filed)
4,000ft
Speed:
(Current/Filed)
110kts
Departed: 08-Nov-18 04:20 PM
Arrived: 08-Nov-18 04:55 PM
Distance/Time
Traveled:
18nm/0:35
Distance/Time
To Go:
Arrived

Flight Plot

Page will automatically refresh every two minutes.


Map Options




Map Legend


Flown Route
Filed Route
Departure Airport
Arrival Airport
Navaid (VOR, NDB)
Fix

Horizontal Profiles

Position Reports

Time Latitude Longitude Heading Altitude Ground
Speed
08-Nov-18 15:58 33.921869 -118.340996 360 68ft 0kts
08-Nov-18 15:59 33.921869 -118.340996 360 68ft 0kts
08-Nov-18 16:00 33.921869 -118.340996 360 68ft 0kts
08-Nov-18 16:01 33.921869 -118.340996 360 68ft 0kts
08-Nov-18 16:02 33.921869 -118.340996 360 68ft 0kts
08-Nov-18 16:03 33.921869 -118.340996 360 68ft 0kts
08-Nov-18 16:04 33.921869 -118.340996 360 68ft 0kts
08-Nov-18 16:05 33.921869 -118.340996 360 68ft 0kts
08-Nov-18 16:06 33.921905 -118.340997 356 68ft 3kts
08-Nov-18 16:07 33.922251 -118.339087 86 68ft 9kts
08-Nov-18 16:08 33.922413 -118.335573 87 68ft 11kts
08-Nov-18 16:09 33.922618 -118.330413 119 68ft 16kts
08-Nov-18 16:10 33.922457 -118.329619 305 68ft 0kts
08-Nov-18 16:11 33.922457 -118.329619 305 68ft 0kts
08-Nov-18 16:12 33.922457 -118.329619 305 68ft 0kts
08-Nov-18 16:13 33.922457 -118.329619 305 68ft 0kts
08-Nov-18 16:14 33.922457 -118.329619 305 68ft 0kts
08-Nov-18 16:15 33.922457 -118.329619 305 68ft 0kts
08-Nov-18 16:16 33.922457 -118.329619 305 68ft 0kts
08-Nov-18 16:17 33.922459 -118.329621 306 68ft 0kts
08-Nov-18 16:18 33.922831 -118.327094 44 68ft 0kts
08-Nov-18 16:19 33.922831 -118.327094 44 68ft 0kts
08-Nov-18 16:20 33.922831 -118.327094 44 68ft 0kts
08-Nov-18 16:21 33.922831 -118.327094 44 68ft 0kts
08-Nov-18 16:22 33.922831 -118.327094 44 68ft 0kts
08-Nov-18 16:23 33.922936 -118.333760 266 259ft 62kts
08-Nov-18 16:24 33.917554 -118.348392 223 1066ft 72kts
08-Nov-18 16:25 33.903590 -118.363709 220 2137ft 70kts
08-Nov-18 16:26 33.888725 -118.380152 221 3141ft 73kts
08-Nov-18 16:27 33.873565 -118.397506 226 3982ft 90kts
08-Nov-18 16:28 33.851222 -118.421706 221 3977ft 111kts
08-Nov-18 16:29 33.825751 -118.441407 173 3975ft 114kts
08-Nov-18 16:30 33.799875 -118.419487 142 3988ft 118kts
08-Nov-18 16:31 33.774107 -118.395708 140 4042ft 118kts
08-Nov-18 16:32 33.760823 -118.364743 68 3948ft 113kts
08-Nov-18 16:33 33.766171 -118.329034 94 3983ft 110kts
08-Nov-18 16:34 33.765992 -118.293916 67 4097ft 110kts
08-Nov-18 16:35 33.770732 -118.257764 88 3949ft 111kts
08-Nov-18 16:36 33.771934 -118.229219 86 3901ft 110kts
08-Nov-18 16:37 33.774545 -118.192412 82 3710ft 110kts
08-Nov-18 16:38 33.777520 -118.155769 82 3511ft 110kts
08-Nov-18 16:39 33.778781 -118.119141 82 3171ft 111kts
08-Nov-18 16:40 33.781294 -118.082479 93 2768ft 112kts
08-Nov-18 16:41 33.782717 -118.046874 111 2629ft 101kts
08-Nov-18 16:42 33.764689 -118.055959 257 2633ft 108kts
08-Nov-18 16:43 33.749657 -118.081173 190 2643ft 99kts
08-Nov-18 16:44 33.723861 -118.074730 166 2600ft 96kts
08-Nov-18 16:45 33.711719 -118.090741 316 2568ft 96kts
08-Nov-18 16:46 33.726605 -118.096355 346 2631ft 91kts
08-Nov-18 16:47 33.733365 -118.097643 359 2614ft 94kts
08-Nov-18 16:48 33.754104 -118.079975 29 2614ft 94kts
08-Nov-18 16:49 33.772793 -118.064214 35 2606ft 92kts
08-Nov-18 16:50 33.793142 -118.045798 36 2547ft 93kts
08-Nov-18 16:51 33.814401 -118.028740 33 2098ft 94kts
08-Nov-18 16:52 33.834715 -118.010330 25 1629ft 93kts
08-Nov-18 16:53 33.850789 -117.996448 32 1172ft 92kts
08-Nov-18 16:54 33.865444 -117.983647 39 697ft 88kts
08-Nov-18 16:55 33.867903 -117.957001 75 1058ft 91kts
08-Nov-18 16:56 33.880023 -117.947634 257 579ft 79kts
08-Nov-18 16:57 33.874328 -117.968137 251 281ft 64kts
08-Nov-18 16:58 33.871836 -117.980867 252 100ft 14kts
08-Nov-18 16:59 33.870783 -117.980994 166 100ft 15kts
08-Nov-18 17:00 33.870674 -117.980663 85 100ft 0kts

Navigation Log

Ident Type
1. KHHR Airport
2. LIMBO Fix
3. WILMA Fix
4. SLI Navaid
5. KFUL Airport